Time;durP1;ratioP1;P1;durP2;ratioP2;P2;SDS_P1;SDS_P2;PMS_P1;PMS_P2;Temp;Humidity;BMP_temperature;BMP_pressure;BME280_temperature;BME280_humidity;BME280_pressure;Samples;Min_cycle;Max_cycle;Signal;HPM_P1;HPM_P2
2022/05/09 00:01:36;;;;;;;;;6.50;6.50;;;;;16.19;68.35;99685.53;5054949;28;45496;-61
2022/05/09 00:04:01;;;;;;;;;8.00;8.00;;;;;16.15;68.85;99683.09;5073010;28;45373;-61
2022/05/09 00:06:27;;;;;;;;;6.50;6.50;;;;;16.12;69.07;99677.94;5051108;28;45231;-61
2022/05/09 00:08:52;;;;;;;;;7.75;6.00;;;;;16.11;69.18;99686.84;5063151;28;45839;-61
2022/05/09 00:11:27;;;;;;;;;6.25;6.25;;;;;16.10;69.29;99686.00;5072285;28;45521;-61
2022/05/09 00:13:53;;;;;;;;;5.25;5.25;;;;;16.08;69.32;99685.25;5063037;28;45404;-61
2022/05/09 00:16:18;;;;;;;;;8.00;6.75;;;;;16.07;69.26;99678.22;5075280;28;45551;-61
2022/05/09 00:18:44;;;;;;;;;9.00;7.25;;;;;16.05;69.36;99688.94;5067867;28;45592;-61
2022/05/09 00:21:09;;;;;;;;;8.00;6.75;;;;;16.03;69.61;99684.63;5071123;28;45329;-61
2022/05/09 00:23:44;;;;;;;;;9.00;6.25;;;;;16.00;69.38;99683.00;5075627;28;45485;-61
2022/05/09 00:26:09;;;;;;;;;8.50;7.50;;;;;15.97;69.51;99687.59;5065525;28;45272;-61
2022/05/09 00:28:35;;;;;;;;;11.00;9.00;;;;;15.94;69.36;99683.31;5063763;28;45498;-61
2022/05/09 00:31:00;;;;;;;;;5.25;5.00;;;;;15.93;69.76;99689.56;5075572;28;45472;-60
2022/05/09 00:33:26;;;;;;;;;8.50;8.50;;;;;15.91;69.19;99682.63;5075921;28;45555;-61
2022/05/09 00:35:53;;;;;;;;;9.25;7.50;;;;;15.87;69.64;99679.28;5055944;28;45622;-61
2022/05/09 00:38:18;;;;;;;;;7.00;7.00;;;;;15.85;69.76;99677.63;5060572;28;46717;-61
2022/05/09 00:41:28;;;;;;;;;7.00;7.00;;;;;15.82;69.93;99675.13;5070401;28;45422;-61
2022/05/09 00:43:35;;;;;;;;;9.00;8.00;;;;;15.79;70.18;99680.59;5061246;28;45506;-61
2022/05/09 00:46:02;;;;;;;;;8.75;6.75;;;;;15.77;70.01;99677.16;5074797;28;45636;-61
2022/05/09 00:48:27;;;;;;;;;8.00;7.75;;;;;15.74;70.04;99685.31;5073004;27;45668;-61
2022/05/09 00:51:04;;;;;;;;;10.50;9.50;;;;;15.71;70.17;99681.00;5072373;28;45608;-60
2022/05/09 00:53:32;;;;;;;;;6.00;6.00;;;;;15.69;70.24;99683.75;5066191;27;45547;-60
2022/05/09 00:56:01;;;;;;;;;7.00;7.00;;;;;15.69;70.11;99689.06;5069123;28;45626;-61
2022/05/09 00:58:34;;;;;;;;;7.00;7.00;;;;;15.66;70.18;99683.91;5072833;28;46659;-61
2022/05/09 01:01:03;;;;;;;;;8.40;7.20;;;;;15.66;70.16;99685.69;5074293;28;45511;-60
2022/05/09 01:03:47;;;;;;;;;8.75;8.00;;;;;15.64;70.27;99685.78;5069686;28;45493;-60
2022/05/09 01:06:13;;;;;;;;;5.75;5.75;;;;;15.60;70.28;99678.88;5056415;28;45423;-61
2022/05/09 01:08:39;;;;;;;;;7.50;6.25;;;;;15.59;70.50;99690.47;5074323;28;45430;-61
2022/05/09 01:11:11;;;;;;;;;9.00;8.00;;;;;15.57;70.74;99683.53;5067132;27;45389;-60
2022/05/09 01:14:09;;;;;;;;;7.75;6.00;;;;;15.55;70.67;99682.72;5068329;27;45482;-61
2022/05/09 01:16:36;;;;;;;;;8.00;7.50;;;;;15.51;70.80;99684.66;5045512;28;45576;-60
2022/05/09 01:19:12;;;;;;;;;7.50;7.50;;;;;15.48;71.06;99690.13;5050748;28;46566;-61
2022/05/09 01:21:47;;;;;;;;;10.80;9.80;;;;;15.46;70.98;99694.66;5041131;28;45434;-60
2022/05/09 01:24:24;;;;;;;;;8.50;8.00;;;;;15.45;71.41;99694.72;5049868;28;45577;-61
2022/05/09 01:26:50;;;;;;;;;8.75;8.50;;;;;15.44;71.60;99695.66;5052748;28;45450;-61
2022/05/09 01:29:36;;;;;;;;;7.50;7.50;;;;;15.44;71.81;99693.00;5034782;28;45573;-61
2022/05/09 01:32:02;;;;;;;;;9.25;8.75;;;;;15.43;71.63;99693.94;5051661;28;45501;-61
2022/05/09 01:34:30;;;;;;;;;10.25;8.50;;;;;15.41;71.72;99698.50;5051968;28;45450;-61
2022/05/09 01:37:03;;;;;;;;;9.50;9.50;;;;;15.39;72.19;99695.06;5052060;28;45503;-60
2022/05/09 01:39:31;;;;;;;;;13.00;10.75;;;;;15.37;72.49;99697.78;5052421;28;45577;-61
2022/05/09 01:41:56;;;;;;;;;8.40;8.40;;;;;15.33;72.43;99699.75;5052361;28;45391;-61
2022/05/09 01:44:23;;;;;;;;;9.25;8.50;;;;;15.33;72.65;99698.88;5048654;28;45402;-61
2022/05/09 01:49:35;;;;;;;;;8.50;8.00;;;;;15.27;73.28;99701.81;5087079;27;45800;-60
2022/05/09 01:52:06;;;;;;;;;11.60;10.60;;;;;15.24;73.10;99708.19;5089850;27;45490;-61
2022/05/09 01:54:32;;;;;;;;;10.25;10.25;;;;;15.23;73.38;99703.81;5094264;27;45209;-60
2022/05/09 01:56:58;;;;;;;;;9.75;9.75;;;;;15.20;73.30;99708.41;5089730;27;45413;-61
2022/05/09 01:59:32;;;;;;;;;11.25;9.00;;;;;15.18;73.15;99710.28;5095090;27;46291;-60
2022/05/09 02:02:03;;;;;;;;;9.00;9.00;;;;;15.17;73.33;99712.06;5086561;27;45384;-61
2022/05/09 02:04:29;;;;;;;;;9.00;9.00;;;;;15.15;73.50;99707.75;5090347;27;45383;-60
2022/05/09 02:06:57;;;;;;;;;11.75;10.00;;;;;15.12;73.54;99719.38;5087440;27;45497;-61
2022/05/09 02:09:22;;;;;;;;;9.00;7.75;;;;;15.09;73.51;99716.88;5094372;27;47020;-61
2022/05/09 02:11:48;;;;;;;;;7.25;7.25;;;;;15.06;73.44;99725.03;5094465;27;45529;-60
2022/05/09 02:14:13;;;;;;;;;10.50;8.50;;;;;15.05;73.36;99717.13;5088494;27;45849;-60
2022/05/09 02:16:39;;;;;;;;;9.25;9.25;;;;;15.01;73.29;99729.69;5089456;27;45544;-60
2022/05/09 02:19:06;;;;;;;;;14.00;12.75;;;;;15.01;73.63;99724.38;5088089;27;47279;-61
2022/05/09 02:21:33;;;;;;;;;6.40;6.40;;;;;14.99;73.75;99727.09;5089836;27;45438;-61
2022/05/09 02:23:59;;;;;;;;;12.00;7.50;;;;;14.97;73.53;99728.97;5088219;27;45368;-61
2022/05/09 02:26:25;;;;;;;;;9.50;9.50;;;;;14.94;74.17;99734.41;5090674;27;45491;-60
2022/05/09 02:28:51;;;;;;;;;14.00;11.75;;;;;14.91;74.05;99734.56;5092400;27;45361;-61
2022/05/09 02:31:20;;;;;;;;;9.50;9.50;;;;;14.91;74.07;99736.38;5093355;27;45219;-60
2022/05/09 02:33:54;;;;;;;;;10.50;9.00;;;;;14.89;74.35;99738.25;5092385;27;45531;-60
2022/05/09 02:36:20;;;;;;;;;10.00;10.00;;;;;14.87;74.17;99737.47;5079814;27;45362;-60
2022/05/09 02:38:45;;;;;;;;;12.75;11.75;;;;;14.85;74.40;99742.84;5090766;27;45466;-61
2022/05/09 02:41:11;;;;;;;;;10.00;10.00;;;;;14.84;74.39;99742.91;5085630;27;45360;-61
2022/05/09 02:43:36;;;;;;;;;10.75;9.75;;;;;14.81;74.17;99746.56;5082019;27;45479;-61
2022/05/09 02:46:03;;;;;;;;;9.00;9.00;;;;;14.80;74.62;99746.63;5094789;27;45404;-60
2022/05/09 02:48:37;;;;;;;;;10.50;10.25;;;;;14.78;74.46;99746.69;5090915;27;46457;-61
2022/05/09 02:51:06;;;;;;;;;11.00;11.00;;;;;14.77;74.62;99738.81;5088104;27;45425;-61
2022/05/09 02:53:32;;;;;;;;;9.75;9.00;;;;;14.77;74.38;99742.31;5082120;27;45431;-61
2022/05/09 02:55:58;;;;;;;;;12.75;10.75;;;;;14.77;74.57;99746.78;5093243;27;45296;-60
2022/05/09 02:58:23;;;;;;;;;10.00;7.75;;;;;14.75;74.83;99738.88;5092824;27;45478;-61
2022/05/09 03:00:50;;;;;;;;;10.75;10.25;;;;;14.73;74.88;99740.78;5089808;27;45492;-60
2022/05/09 03:06:09;;;;;;;;;7.75;7.75;;;;;14.72;75.00;99746.16;5086158;27;45443;-61
2022/05/09 03:08:35;;;;;;;;;10.50;10.00;;;;;14.70;74.78;99748.88;5088498;27;46290;-61
2022/05/09 03:11:00;;;;;;;;;12.00;11.00;;;;;14.70;74.80;99756.84;5074687;27;45469;-61
2022/05/09 03:13:26;;;;;;;;;10.50;10.00;;;;;14.69;74.95;99746.28;5076553;27;45506;-61
2022/05/09 03:15:51;;;;;;;;;10.25;10.25;;;;;14.68;74.74;99752.53;5083831;27;45437;-60
2022/05/09 03:18:21;;;;;;;;;11.75;11.25;;;;;14.65;75.10;99748.22;5086638;27;46481;-61
2022/05/09 03:20:46;;;;;;;;;9.25;7.50;;;;;14.61;74.92;99760.75;5086258;27;45412;-61
2022/05/09 03:23:12;;;;;;;;;14.75;11.00;;;;;14.58;74.93;99754.72;5075719;27;45375;-61
2022/05/09 03:25:38;;;;;;;;;12.75;11.25;;;;;14.56;75.31;99751.31;5092638;27;45424;-60
2022/05/09 03:28:06;;;;;;;;;15.00;11.25;;;;;14.53;75.25;99748.78;5086174;27;45509;-60
2022/05/09 03:30:33;;;;;;;;;6.00;6.00;;;;;14.52;75.33;99753.25;5090441;27;45588;-60
2022/05/09 03:33:07;;;;;;;;;11.00;10.25;;;;;14.50;75.15;99748.94;5082065;27;45440;-60
2022/05/09 03:35:34;;;;;;;;;10.00;8.00;;;;;14.50;75.31;99756.88;5088590;27;45526;-60
2022/05/09 03:37:59;;;;;;;;;11.75;10.00;;;;;14.48;75.27;99753.44;5075840;27;46996;-61
2022/05/09 03:40:34;;;;;;;;;7.75;6.75;;;;;14.47;75.20;99754.38;5090410;27;45364;-60
2022/05/09 03:43:10;;;;;;;;;9.00;9.00;;;;;14.45;75.25;99754.44;5092152;27;45415;-60
2022/05/09 03:45:39;;;;;;;;;12.25;11.00;;;;;14.43;75.60;99751.00;5086635;27;45409;-61
2022/05/09 03:48:05;;;;;;;;;11.25;10.00;;;;;14.40;75.74;99759.13;5087227;27;46461;-60
2022/05/09 03:50:30;;;;;;;;;11.00;10.50;;;;;14.40;75.56;99761.75;5094397;27;45487;-60
2022/05/09 03:52:56;;;;;;;;;10.75;10.00;;;;;14.38;75.68;99763.59;5087209;27;45422;-60
2022/05/09 03:55:21;;;;;;;;;11.75;9.25;;;;;14.39;75.65;99764.44;5092950;27;45595;-60
2022/05/09 03:57:52;;;;;;;;;13.75;10.75;;;;;14.36;75.58;99772.53;5096167;27;46455;-60
2022/05/09 04:00:22;;;;;;;;;11.80;9.00;;;;;14.35;75.48;99778.78;5092091;27;45638;-61
2022/05/09 04:02:48;;;;;;;;;10.75;10.75;;;;;14.32;75.61;99777.13;5092072;27;45526;-61
2022/05/09 04:05:17;;;;;;;;;10.00;10.00;;;;;14.28;75.87;99773.75;5088820;27;45570;-60
2022/05/09 04:07:48;;;;;;;;;13.00;11.00;;;;;14.25;76.08;99775.66;5090923;27;45470;-61
2022/05/09 04:10:17;;;;;;;;;15.00;12.00;;;;;14.22;76.18;99771.38;5096910;27;45425;-61
2022/05/09 04:12:43;;;;;;;;;13.50;11.75;;;;;14.21;76.19;99767.00;5090504;27;45367;-61
2022/05/09 04:17:54;;;;;;;;;13.75;11.00;;;;;14.19;76.15;99774.16;5094209;27;45569;-60
2022/05/09 04:20:20;;;;;;;;;10.25;10.25;;;;;14.18;76.25;99777.75;5088277;27;45506;-60
2022/05/09 04:22:46;;;;;;;;;13.25;10.00;;;;;14.18;76.37;99782.19;5078779;27;45514;-60
2022/05/09 04:25:12;;;;;;;;;12.75;11.75;;;;;14.15;76.68;99785.81;5070393;27;45403;-60
2022/05/09 04:27:38;;;;;;;;;14.50;11.50;;;;;14.14;76.61;99788.53;5086082;27;46318;-61
2022/05/09 04:30:07;;;;;;;;;12.00;11.00;;;;;14.15;76.80;99785.81;5096158;27;45414;-61
2022/05/09 04:32:32;;;;;;;;;9.50;9.50;;;;;14.16;76.93;99784.91;5059400;27;45507;-60
2022/05/09 04:34:58;;;;;;;;;11.00;11.00;;;;;14.17;76.91;99783.97;5075120;27;45574;-60
2022/05/09 04:37:24;;;;;;;;;13.75;12.00;;;;;14.18;76.96;99783.03;5089266;27;45581;-60
2022/05/09 04:39:50;;;;;;;;;11.00;10.25;;;;;14.19;76.86;99791.88;5092661;27;45451;-61
2022/05/09 04:42:15;;;;;;;;;13.75;13.75;;;;;14.20;77.16;99788.28;5095271;27;45541;-60
2022/05/09 04:44:40;;;;;;;;;15.00;13.00;;;;;14.21;77.46;99797.97;5084076;27;45534;-61
2022/05/09 04:47:07;;;;;;;;;11.00;11.00;;;;;14.21;77.26;99798.81;5085164;27;45518;-61
2022/05/09 04:49:33;;;;;;;;;11.75;11.75;;;;;14.23;77.13;99802.28;5095546;27;45454;-60
2022/05/09 04:51:58;;;;;;;;;11.25;11.25;;;;;14.25;76.89;99800.38;5094441;27;45458;-61
2022/05/09 04:54:24;;;;;;;;;12.00;10.50;;;;;14.25;77.09;99800.38;5095618;27;45484;-60
2022/05/09 04:56:49;;;;;;;;;14.75;13.75;;;;;14.28;77.23;99808.22;5094991;27;45401;-60
2022/05/09 04:59:14;;;;;;;;;11.00;10.25;;;;;14.30;77.16;99811.66;5093598;27;45547;-61
2022/05/09 05:01:49;;;;;;;;;14.50;12.00;;;;;14.32;77.26;99808.94;5092318;27;45492;-60
2022/05/09 05:04:17;;;;;;;;;11.25;10.75;;;;;14.35;77.24;99814.13;5092752;27;45438;-60
2022/05/09 05:06:43;;;;;;;;;13.00;11.00;;;;;14.37;77.14;99811.41;5084729;27;46531;-61
2022/05/09 05:09:08;;;;;;;;;17.00;14.75;;;;;14.39;77.10;99821.03;5095929;27;45344;-61
2022/05/09 05:11:34;;;;;;;;;11.00;11.00;;;;;14.42;77.00;99822.69;5090362;27;45386;-60
2022/05/09 05:13:59;;;;;;;;;14.75;13.25;;;;;14.45;76.88;99823.41;5081348;27;45442;-61
2022/05/09 05:16:59;;;;;;;;;12.00;12.00;;;;;14.46;76.92;99827.78;5076839;27;47704;-60
2022/05/09 05:19:10;;;;;;;;;12.75;12.25;;;;;14.49;76.86;99827.66;5091669;27;45542;-60
2022/05/09 05:21:35;;;;;;;;;13.50;12.75;;;;;14.51;77.22;99828.47;5086223;27;45751;-61
2022/05/09 05:24:01;;;;;;;;;16.75;14.75;;;;;14.52;76.52;99824.00;5095246;27;45428;-60
2022/05/09 05:26:26;;;;;;;;;15.00;14.75;;;;;14.51;76.58;99833.75;5085338;27;45447;-60
2022/05/09 05:28:52;;;;;;;;;16.25;14.25;;;;;14.52;76.58;99838.16;5073888;27;45427;-60
2022/05/09 05:31:19;;;;;;;;;16.00;14.50;;;;;14.55;76.51;99845.09;5094215;27;45792;-60
2022/05/09 05:33:45;;;;;;;;;12.25;11.00;;;;;14.56;76.57;99838.88;5090777;27;45473;-60
2022/05/09 05:36:11;;;;;;;;;16.25;13.50;;;;;14.58;76.33;99842.28;5078310;27;47650;-60
2022/05/09 05:38:37;;;;;;;;;12.00;11.50;;;;;14.59;76.60;99847.53;5094997;27;45498;-61
2022/05/09 05:41:02;;;;;;;;;13.00;12.00;;;;;14.59;76.42;99849.31;5080396;27;45515;-61
2022/05/09 05:43:28;;;;;;;;;16.25;14.75;;;;;14.61;76.26;99847.47;5080774;27;45356;-61
2022/05/09 05:45:57;;;;;;;;;14.50;12.00;;;;;14.63;76.67;99853.56;5086374;27;46362;-61
2022/05/09 05:48:24;;;;;;;;;10.75;10.00;;;;;14.63;76.22;99851.78;5079984;27;45449;-60
2022/05/09 05:50:50;;;;;;;;;13.50;13.00;;;;;14.66;76.31;99856.09;5076646;27;45415;-61
2022/05/09 05:53:15;;;;;;;;;10.75;9.50;;;;;14.67;76.19;99860.47;5084870;27;45510;-61
2022/05/09 05:55:41;;;;;;;;;16.00;13.75;;;;;14.68;76.06;99872.81;5087237;27;46282;-61
2022/05/09 05:58:15;;;;;;;;;16.25;15.00;;;;;14.71;75.87;99871.81;5090063;27;45355;-60
2022/05/09 06:00:41;;;;;;;;;14.00;12.00;;;;;14.71;75.74;99861.22;5095251;27;45733;-61
2022/05/09 06:03:08;;;;;;;;;13.50;12.00;;;;;14.71;76.16;99861.22;5062547;27;45682;-61
2022/05/09 06:05:33;;;;;;;;;14.25;12.25;;;;;14.72;76.16;99862.94;5095254;27;46138;-60
2022/05/09 06:07:59;;;;;;;;;13.50;12.75;;;;;14.73;76.11;99868.16;5087582;27;45664;-61
2022/05/09 06:10:26;;;;;;;;;11.75;11.25;;;;;14.75;76.01;99868.06;5087356;27;45688;-60
2022/05/09 06:12:53;;;;;;;;;12.50;12.00;;;;;14.78;76.18;99874.13;5089424;27;45567;-61
2022/05/09 06:15:24;;;;;;;;;14.00;14.00;;;;;14.81;76.00;99870.47;5086372;27;45513;-73
2022/05/09 06:17:50;;;;;;;;;12.75;11.50;;;;;14.87;75.96;99875.50;5093719;27;45417;-74
2022/05/09 06:20:16;;;;;;;;;9.00;9.00;;;;;14.91;75.59;99869.13;5070778;27;45432;-73
2022/05/09 06:23:02;;;;;;;;;11.50;10.00;;;;;14.96;75.75;99872.41;5077153;27;45486;-73
2022/05/09 06:25:29;;;;;;;;;12.00;11.75;;;;;15.02;75.51;99877.47;5086899;27;46533;-74
2022/05/09 06:27:54;;;;;;;;;10.60;10.60;;;;;15.07;74.84;99879.91;5093777;27;45406;-73
2022/05/09 06:30:22;;;;;;;;;10.25;10.25;;;;;15.14;75.12;99873.34;5074388;27;45413;-74
2022/05/09 06:32:49;;;;;;;;;12.00;10.50;;;;;15.21;74.89;99875.66;5064126;27;45554;-73
2022/05/09 06:35:25;;;;;;;;;14.75;13.75;;;;;15.29;74.72;99873.50;5085665;27;46748;-73
2022/05/09 06:37:56;;;;;;;;;13.25;12.25;;;;;15.34;74.33;99870.63;5071797;27;45438;-74
2022/05/09 06:40:21;;;;;;;;;9.25;8.75;;;;;15.40;74.23;99875.66;5094503;27;45361;-73
2022/05/09 06:42:51;;;;;;;;;14.25;13.25;;;;;15.48;74.26;99875.28;5094807;27;45385;-73
2022/05/09 06:45:17;;;;;;;;;7.75;6.25;;;;;15.54;73.83;99870.53;5087104;27;45569;-73
2022/05/09 06:47:52;;;;;;;;;15.25;13.25;;;;;15.60;73.71;99878.22;5072293;28;45396;-73
2022/05/09 06:50:19;;;;;;;;;12.00;12.00;;;;;15.67;73.51;99879.66;5091696;27;45470;-73
2022/05/09 06:52:45;;;;;;;;;12.25;11.25;;;;;15.75;73.46;99876.66;5074693;28;45346;-74
2022/05/09 06:55:12;;;;;;;;;14.25;12.25;;;;;15.82;73.46;99870.06;5081863;27;45434;-74
2022/05/09 06:57:42;;;;;;;;;16.00;16.00;;;;;15.91;73.09;99869.63;5063404;27;45479;-74
2022/05/09 07:00:12;;;;;;;;;12.50;12.50;;;;;16.00;72.66;99869.16;5079343;27;45406;-74
2022/05/09 07:02:47;;;;;;;;;16.25;13.50;;;;;16.08;72.48;99870.59;5073965;28;45399;-73
2022/05/09 07:05:24;;;;;;;;;11.50;11.00;;;;;16.12;72.02;99864.16;5089754;27;45978;-74
2022/05/09 07:07:50;;;;;;;;;11.40;10.80;;;;;16.18;71.81;99861.19;5072861;27;45336;-73
2022/05/09 07:10:17;;;;;;;;;10.25;7.00;;;;;16.24;71.74;99867.06;5075892;27;45476;-73
2022/05/09 07:13:01;;;;;;;;;13.00;13.00;;;;;16.34;71.56;99859.47;5069607;27;45518;-73
2022/05/09 07:15:29;;;;;;;;;12.50;11.50;;;;;16.42;71.46;99867.91;5075617;27;46161;-73
2022/05/09 07:17:55;;;;;;;;;12.40;12.20;;;;;16.49;71.01;99860.47;5093081;27;45491;-74
2022/05/09 07:20:23;;;;;;;;;13.75;11.50;;;;;16.53;70.66;99864.69;5088325;27;45540;-73
2022/05/09 07:22:51;;;;;;;;;12.75;12.25;;;;;16.59;70.10;99861.72;5078531;27;45362;-73
2022/05/09 07:25:17;;;;;;;;;11.75;11.75;;;;;16.65;70.01;99864.06;5087849;27;46697;-73
2022/05/09 07:27:43;;;;;;;;;10.80;10.80;;;;;16.71;69.64;99861.94;5077970;27;45539;-73
2022/05/09 07:30:14;;;;;;;;;13.50;12.00;;;;;16.78;69.31;99857.13;5065999;28;45465;-73
2022/05/09 07:32:40;;;;;;;;;11.75;10.50;;;;;16.84;69.05;99853.28;5077464;28;45340;-73
2022/05/09 07:35:10;;;;;;;;;11.00;11.00;;;;;16.89;68.92;99857.44;5076607;27;45667;-73
2022/05/09 07:37:35;;;;;;;;;10.00;10.00;;;;;16.97;68.61;99857.88;5091208;27;45235;-73
2022/05/09 07:40:01;;;;;;;;;11.50;11.25;;;;;17.02;68.43;99858.47;5082284;27;45368;-73
2022/05/09 07:42:35;;;;;;;;;9.50;9.50;;;;;17.06;67.89;99857.38;5077306;27;45409;-73
2022/05/09 07:45:02;;;;;;;;;10.20;9.20;;;;;17.10;67.93;99860.72;5088999;27;46470;-74
2022/05/09 07:47:28;;;;;;;;;12.00;11.20;;;;;17.17;67.97;99853.25;5091619;27;45499;-63
2022/05/09 07:49:53;;;;;;;;;10.50;8.75;;;;;17.30;67.52;99857.81;5095983;27;45341;-66
2022/05/09 07:52:18;;;;;;;;;15.25;12.50;;;;;17.42;66.89;99850.94;5098394;27;45440;-66
2022/05/09 07:54:46;;;;;;;;;10.00;8.50;;;;;17.53;66.09;99845.00;5095582;27;45588;-66
2022/05/09 07:57:12;;;;;;;;;13.20;12.40;;;;;17.62;66.02;99839.13;5081722;27;45510;-66
2022/05/09 07:59:37;;;;;;;;;13.50;12.50;;;;;17.71;65.67;99841.31;5094029;27;45544;-66
2022/05/09 08:02:03;;;;;;;;;14.50;13.75;;;;;17.78;65.50;99840.84;5085760;27;45542;-66
2022/05/09 08:04:28;;;;;;;;;8.75;8.25;;;;;17.87;65.80;99841.28;5095637;27;46547;-67
2022/05/09 08:06:54;;;;;;;;;9.00;8.00;;;;;17.95;65.04;99841.66;5096556;27;45499;-66
2022/05/09 08:09:19;;;;;;;;;7.25;6.50;;;;;18.03;64.74;99840.28;5096244;27;45547;-66
2022/05/09 08:11:45;;;;;;;;;8.75;8.75;;;;;18.10;64.33;99841.63;5086469;27;45486;-66
2022/05/09 08:14:11;;;;;;;;;7.75;7.75;;;;;18.18;64.12;99846.53;5086296;27;45506;-66
2022/05/09 08:16:38;;;;;;;;;6.20;6.20;;;;;18.26;63.79;99836.25;5083812;27;45383;-66
2022/05/09 08:19:04;;;;;;;;;7.50;6.00;;;;;18.29;63.44;99830.72;5094331;27;45560;-66
2022/05/09 08:21:30;;;;;;;;;7.00;7.00;;;;;18.33;63.14;99834.91;5088395;27;45374;-66
2022/05/09 08:23:56;;;;;;;;;7.75;6.50;;;;;18.39;63.16;99833.69;5084022;27;46402;-66
2022/05/09 08:26:22;;;;;;;;;8.60;7.40;;;;;18.45;63.43;99830.63;5083834;27;45460;-67
2022/05/09 08:28:48;;;;;;;;;8.00;7.25;;;;;18.51;63.24;99824.06;5088179;27;45412;-66
2022/05/09 08:31:18;;;;;;;;;6.25;6.25;;;;;18.56;63.42;99828.19;5083340;27;45522;-67
2022/05/09 08:33:46;;;;;;;;;8.00;7.80;;;;;18.60;63.26;99827.06;5093596;27;46273;-66
2022/05/09 08:36:11;;;;;;;;;8.20;8.00;;;;;18.68;63.12;99831.94;5095386;27;45469;-66
2022/05/09 08:38:37;;;;;;;;;8.00;7.00;;;;;18.74;62.51;99827.09;5095629;27;45377;-66
2022/05/09 08:41:13;;;;;;;;;6.25;6.25;;;;;18.84;62.45;99814.00;5087706;27;45455;-67
2022/05/09 08:44:17;;;;;;;;;8.20;7.20;;;;;18.96;61.79;99820.38;5084691;27;46251;-66
2022/05/09 08:46:58;;;;;;;;;7.20;6.00;;;;;19.05;61.46;99812.63;5087410;27;45545;-68
2022/05/09 08:49:32;;;;;;;;;7.25;6.75;;;;;19.11;61.19;99809.56;5072754;27;45711;-66
2022/05/09 08:52:13;;;;;;;;;5.60;5.60;;;;;19.17;61.16;99811.84;5084093;27;45583;-65
2022/05/09 08:54:40;;;;;;;;;8.20;8.00;;;;;19.24;60.80;99806.13;5094624;27;46390;-66
2022/05/09 08:57:13;;;;;;;;;8.60;8.00;;;;;19.34;60.90;99808.09;5067682;28;45403;-66
2022/05/09 08:59:50;;;;;;;;;5.80;5.80;;;;;19.41;60.34;99812.09;5070480;27;45558;-66
2022/05/09 09:02:40;;;;;;;;;10.50;9.25;;;;;19.47;60.03;99818.81;5084075;27;45333;-66
2022/05/09 09:05:10;;;;;;;;;7.20;7.20;;;;;19.50;60.39;99813.31;5095096;27;46321;-65
2022/05/09 09:08:00;;;;;;;;;8.20;8.20;;;;;19.59;59.88;99814.53;5095486;27;45407;-66
2022/05/09 09:10:34;;;;;;;;;6.00;5.20;;;;;19.64;59.86;99805.22;5095091;27;45541;-66
2022/05/09 09:13:09;;;;;;;;;6.75;6.00;;;;;19.69;59.68;99808.47;5077512;27;45408;-65
2022/05/09 09:15:53;;;;;;;;;7.80;7.00;;;;;19.72;58.55;99802.91;5081174;27;45477;-65
2022/05/09 09:18:37;;;;;;;;;10.00;10.00;;;;;19.70;59.02;99798.63;5083942;27;45396;-66
2022/05/09 09:21:23;;;;;;;;;9.00;9.00;;;;;19.66;59.46;99797.97;5076932;27;45550;-66
2022/05/09 09:23:48;;;;;;;;;7.00;7.00;;;;;19.73;59.12;99799.28;5094017;27;46375;-65
2022/05/09 09:26:43;;;;;;;;;6.25;6.25;;;;;19.84;59.35;99802.09;5082863;27;45422;-66
2022/05/09 09:29:11;;;;;;;;;7.80;7.80;;;;;19.93;59.23;99797.09;5092984;27;45310;-66
2022/05/09 09:31:41;;;;;;;;;9.00;7.00;;;;;20.00;58.45;99803.72;5094338;27;45568;-66
2022/05/09 09:34:26;;;;;;;;;7.40;6.40;;;;;20.03;57.50;99796.34;5087091;27;45372;-66
2022/05/09 09:37:27;;;;;;;;;5.60;5.60;;;;;20.10;57.65;99788.78;5093502;27;45516;-66
2022/05/09 09:39:53;;;;;;;;;9.00;9.00;;;;;20.13;57.62;99792.06;5089128;27;45722;-65
2022/05/09 09:42:18;;;;;;;;;8.25;7.50;;;;;20.16;57.39;99789.19;5082639;27;45435;-66
2022/05/09 09:44:46;;;;;;;;;7.50;7.00;;;;;20.15;57.02;99792.81;5070052;27;45436;-65
2022/05/09 09:47:21;;;;;;;;;7.60;6.80;;;;;20.16;57.50;99799.03;5090849;27;47426;-65
2022/05/09 09:49:49;;;;;;;;;7.00;7.00;;;;;20.19;57.92;99797.00;5080637;27;45505;-66
2022/05/09 09:52:25;;;;;;;;;8.00;8.00;;;;;20.27;57.62;99790.28;5075364;28;45418;-66
2022/05/09 09:54:57;;;;;;;;;8.00;7.00;;;;;20.34;57.42;99788.88;5076407;27;45848;-66
2022/05/09 09:57:38;;;;;;;;;9.00;8.40;;;;;20.40;57.02;99785.81;5083427;27;46434;-66
2022/05/09 10:00:13;;;;;;;;;8.20;6.60;;;;;20.49;57.29;99780.66;5076803;27;45432;-66
2022/05/09 10:02:38;;;;;;;;;6.40;5.60;;;;;20.57;56.74;99776.59;5085061;27;45484;-66
2022/05/09 10:05:13;;;;;;;;;7.50;7.00;;;;;20.61;55.88;99773.56;5081782;27;45439;-65
2022/05/09 10:07:43;;;;;;;;;8.20;7.60;;;;;20.63;55.58;99773.47;5073503;28;45481;-66
2022/05/09 10:10:17;;;;;;;;;7.40;7.40;;;;;20.65;56.42;99777.75;5081865;27;45475;-67
2022/05/09 10:12:49;;;;;;;;;8.20;8.20;;;;;20.63;55.54;99779.69;5077667;27;45567;-67
2022/05/09 10:15:26;;;;;;;;;7.20;5.40;;;;;20.62;55.78;99774.44;5083375;27;45389;-66
2022/05/09 10:17:52;;;;;;;;;9.00;8.40;;;;;20.64;55.50;99772.50;5091830;27;46575;-67
2022/05/09 10:20:41;;;;;;;;;9.40;8.00;;;;;20.69;55.59;99770.34;5084696;27;45405;-66
2022/05/09 10:26:29;;;;;;;;;9.00;7.40;;;;;20.72;54.83;99764.78;5046627;27;45757;-66
2022/05/09 10:29:00;;;;;;;;;10.00;8.20;;;;;20.76;54.97;99756.44;5094206;27;46348;-66
2022/05/09 10:32:01;;;;;;;;;8.60;8.00;;;;;20.87;53.45;99752.97;5094124;27;45414;-66
2022/05/09 10:34:40;;;;;;;;;9.60;8.00;;;;;20.92;54.76;99750.81;5032224;27;45592;-66
2022/05/09 10:37:18;;;;;;;;;8.00;7.00;;;;;20.98;53.54;99754.84;5077372;27;45545;-66
2022/05/09 10:39:52;;;;;;;;;7.00;7.00;;;;;21.03;53.02;99758.06;5094197;27;46315;-65
2022/05/09 10:42:27;;;;;;;;;7.60;7.60;;;;;21.08;54.11;99747.88;5074026;27;45487;-66
2022/05/09 10:45:04;;;;;;;;;9.20;8.20;;;;;21.20;54.11;99749.66;5092904;27;45487;-66
2022/05/09 10:47:59;;;;;;;;;4.20;4.20;;;;;21.29;53.05;99732.88;5083260;27;45540;-67
2022/05/09 10:50:32;;;;;;;;;7.60;7.00;;;;;21.33;52.60;99737.06;5054671;28;45628;-66
2022/05/09 10:53:26;;;;;;;;;8.60;8.20;;;;;21.36;51.79;99734.16;5073412;27;45401;-67
2022/05/09 10:56:04;;;;;;;;;6.00;5.80;;;;;21.38;52.07;99726.84;5085263;27;45368;-66
2022/05/09 10:58:57;;;;;;;;;2.00;2.00;;;;;21.42;52.04;99730.16;5074270;27;45606;-66
2022/05/09 11:01:29;;;;;;;;;9.80;8.20;;;;;21.47;51.88;99734.19;5087234;27;46353;-66
2022/05/09 11:04:03;;;;;;;;;8.80;7.40;;;;;21.52;52.51;99715.94;5075398;27;45510;-67
2022/05/09 11:07:04;;;;;;;;;7.40;7.40;;;;;21.61;51.59;99709.03;5075121;27;45386;-67
2022/05/09 11:10:07;;;;;;;;;8.40;7.00;;;;;21.69;51.50;99711.97;5069307;27;45343;-66
2022/05/09 11:12:56;;;;;;;;;8.00;7.00;;;;;21.81;51.66;99700.28;5078423;27;46697;-66
2022/05/09 11:15:50;;;;;;;;;7.80;7.80;;;;;21.92;50.46;99713.75;5066583;27;45539;-66
2022/05/09 11:18:34;;;;;;;;;9.00;9.00;;;;;21.98;50.67;99714.22;5086626;27;45345;-66
2022/05/09 11:21:14;;;;;;;;;7.20;7.20;;;;;22.03;51.21;99712.06;5086538;27;45772;-66
2022/05/09 11:23:51;;;;;;;;;8.00;8.00;;;;;22.11;50.97;99715.88;5089126;27;45520;-67
2022/05/09 11:26:31;;;;;;;;;8.40;8.00;;;;;22.16;50.95;99713.69;5093355;27;45404;-66
2022/05/09 11:29:35;;;;;;;;;9.00;9.00;;;;;22.20;51.49;99708.94;5089602;27;45496;-67
2022/05/09 11:32:13;;;;;;;;;6.60;6.60;;;;;22.23;50.75;99708.69;5084138;27;45619;-66
2022/05/09 11:34:51;;;;;;;;;8.20;8.20;;;;;22.27;50.96;99689.53;5088769;27;45455;-65
2022/05/09 11:37:47;;;;;;;;;6.60;6.60;;;;;22.36;51.02;99692.44;5068833;27;45802;-66
2022/05/09 11:40:34;;;;;;;;;9.20;8.00;;;;;22.41;50.21;99693.81;5065228;27;45516;-66
2022/05/09 11:43:27;;;;;;;;;8.75;8.75;;;;;22.42;49.77;99698.19;5082377;27;45451;-66
2022/05/09 11:46:08;;;;;;;;;9.20;8.60;;;;;22.42;49.87;99694.66;5081813;27;45527;-67
2022/05/09 11:48:39;;;;;;;;;10.00;9.00;;;;;22.44;49.36;99690.88;5086564;27;45488;-66
2022/05/09 11:51:26;;;;;;;;;6.60;6.60;;;;;22.47;49.44;99679.00;5090176;27;45409;-66
2022/05/09 11:53:59;;;;;;;;;10.60;8.80;;;;;22.53;49.36;99686.59;5085493;27;45493;-66
2022/05/09 11:56:25;;;;;;;;;8.40;8.40;;;;;22.61;48.95;99676.94;5087305;27;45455;-66